Time,TemperatureF,DewpointF,PressureIn,WindDirection,WindDirectionDegrees,WindSpeedMPH,WindSpeedGustMPH,Humidity,HourlyPrecipIn,Conditions,Clouds,dailyrainin,SoftwareType,DateUTC
2013-01-14 00:00:00,5.5,1.2,30.13,SW,225,1.7,-999.0,82,-99.99,,,0.00,Acu-Link.com,2013-01-14 06:00:00,
2013-01-14 00:15:00,5.2,0.9,30.14,WSW,247,2.2,-999.0,82,-99.99,,,0.00,Acu-Link.com,2013-01-14 06:15:00,
2013-01-14 00:30:00,5.0,1.0,30.14,WSW,247,2.7,-999.0,83,-99.99,,,0.00,Acu-Link.com,2013-01-14 06:30:00,
2013-01-14 00:45:00,4.6,0.6,30.14,ENE,67,2.2,-999.0,83,-99.99,,,0.00,Acu-Link.com,2013-01-14 06:45:00,
2013-01-14 01:00:00,4.1,0.1,30.14,ENE,67,0.0,-999.0,83,-99.99,,,0.00,Acu-Link.com,2013-01-14 07:00:00,
2013-01-14 01:16:00,3.6,-0.4,30.14,WSW,247,1.1,-999.0,83,-99.99,,,0.00,Acu-Link.com,2013-01-14 07:16:00,
2013-01-14 01:31:00,2.8,-1.2,30.15,West,270,2.2,-999.0,83,-99.99,,,0.00,Acu-Link.com,2013-01-14 07:31:00,
2013-01-14 01:46:00,2.7,-1.0,30.15,South,180,1.1,-999.0,84,-99.99,,,0.00,Acu-Link.com,2013-01-14 07:46:00,
2013-01-14 02:01:00,2.3,-1.7,30.16,SW,225,2.2,-999.0,83,-99.99,,,0.00,Acu-Link.com,2013-01-14 08:01:00,
2013-01-14 02:16:00,1.6,-2.3,30.16,NNW,337,0.0,-999.0,83,-99.99,,,0.00,Acu-Link.com,2013-01-14 08:16:00,
2013-01-14 02:32:00,1.2,-3.0,30.16,North,0,0.0,-999.0,82,-99.99,,,0.00,Acu-Link.com,2013-01-14 08:32:00,
2013-01-14 02:47:00,0.9,-3.3,30.17,WSW,247,2.7,-999.0,82,-99.99,,,0.00,Acu-Link.com,2013-01-14 08:47:00,
2013-01-14 03:13:00,0.1,-4.3,30.17,WSW,247,1.7,-999.0,81,-99.99,,,0.00,Acu-Link.com,2013-01-14 09:13:00,
2013-01-14 03:28:00,0.0,-4.2,30.18,SW,225,3.2,-999.0,82,-99.99,,,0.00,Acu-Link.com,2013-01-14 09:28:00,
2013-01-14 03:43:00,-0.2,-4.4,30.18,WSW,247,3.2,-999.0,82,-99.99,,,0.00,Acu-Link.com,2013-01-14 09:43:00,
2013-01-14 03:58:00,-0.4,-4.6,30.18,ENE,67,0.0,-999.0,82,-99.99,,,0.00,Acu-Link.com,2013-01-14 09:58:00,
2013-01-14 04:13:00,-0.8,-4.9,30.18,WSW,247,2.7,-999.0,82,-99.99,,,0.00,Acu-Link.com,2013-01-14 10:13:00,
2013-01-14 04:29:00,-1.1,-5.0,30.18,SW,225,2.2,-999.0,83,-99.99,,,0.00,Acu-Link.com,2013-01-14 10:29:00,
2013-01-14 04:44:00,-1.3,-5.4,30.19,NNW,337,2.7,-999.0,82,-99.99,,,0.00,Acu-Link.com,2013-01-14 10:44:00,
2013-01-14 04:59:00,-1.3,-5.4,30.19,WSW,247,1.7,-999.0,82,-99.99,,,0.00,Acu-Link.com,2013-01-14 10:59:00,
2013-01-14 05:14:00,-1.5,-5.6,30.19,ESE,112,1.1,-999.0,82,-99.99,,,0.00,Acu-Link.com,2013-01-14 11:14:00,
2013-01-14 05:29:00,-1.7,-5.6,30.20,WNW,292,0.0,-999.0,83,-99.99,,,0.00,Acu-Link.com,2013-01-14 11:29:00,
2013-01-14 05:45:00,-1.8,-5.7,30.21,SW,225,2.7,-999.0,83,-99.99,,,0.00,Acu-Link.com,2013-01-14 11:45:00,
2013-01-14 06:00:00,-2.4,-6.3,30.21,SW,225,3.7,-999.0,83,-99.99,,,0.00,Acu-Link.com,2013-01-14 12:00:00,
2013-01-14 06:15:00,-2.6,-6.5,30.22,West,270,2.7,-999.0,83,-99.99,,,0.00,Acu-Link.com,2013-01-14 12:15:00,
2013-01-14 06:30:00,-2.7,-6.6,30.22,SW,225,2.2,-999.0,83,-99.99,,,0.00,Acu-Link.com,2013-01-14 12:30:00,
2013-01-14 06:45:00,-2.9,-6.8,30.23,WSW,247,1.7,-999.0,83,-99.99,,,0.00,Acu-Link.com,2013-01-14 12:45:00,
2013-01-14 07:01:00,-2.9,-6.8,30.23,WSW,247,1.1,-999.0,83,-99.99,,,0.00,Acu-Link.com,2013-01-14 13:01:00,
2013-01-14 07:16:00,-2.9,-7.0,30.24,NNW,337,2.2,-999.0,82,-99.99,,,0.00,Acu-Link.com,2013-01-14 13:16:00,
2013-01-14 07:31:00,-3.3,-7.1,30.25,West,270,1.7,-999.0,83,-99.99,,,0.00,Acu-Link.com,2013-01-14 13:31:00,
2013-01-14 07:46:00,-3.5,-7.6,30.25,SW,225,2.7,-999.0,82,-99.99,,,0.00,Acu-Link.com,2013-01-14 13:46:00,
2013-01-14 08:01:00,-4.0,-8.1,30.26,East,90,1.1,-999.0,82,-99.99,,,0.00,Acu-Link.com,2013-01-14 14:01:00,
2013-01-14 08:17:00,-4.0,-8.1,30.26,West,270,0.0,-999.0,82,-99.99,,,0.00,Acu-Link.com,2013-01-14 14:17:00,
2013-01-14 08:32:00,-4.2,-8.3,30.26,SW,225,1.7,-999.0,82,-99.99,,,0.00,Acu-Link.com,2013-01-14 14:32:00,
2013-01-14 08:47:00,-3.6,-7.7,30.27,SW,225,0.0,-999.0,82,-99.99,,,0.00,Acu-Link.com,2013-01-14 14:47:00,
2013-01-14 09:02:00,-1.8,-6.2,30.27,WSW,247,1.7,-999.0,81,-99.99,,,0.00,Acu-Link.com,2013-01-14 15:02:00,
2013-01-14 09:17:00,0.1,-4.3,30.28,NW,315,0.0,-999.0,81,-99.99,,,0.00,Acu-Link.com,2013-01-14 15:17:00,
2013-01-14 09:33:00,2.3,-3.0,30.28,West,270,3.7,-999.0,78,-99.99,,,0.00,Acu-Link.com,2013-01-14 15:33:00,
2013-01-14 09:48:00,2.1,-2.9,30.28,West,270,1.7,-999.0,79,-99.99,,,0.00,Acu-Link.com,2013-01-14 15:48:00,
2013-01-14 10:03:00,4.1,-2.3,30.27,WNW,292,2.2,-999.0,74,-99.99,,,0.00,Acu-Link.com,2013-01-14 16:03:00,
2013-01-14 10:18:00,4.1,-1.8,30.27,NNW,337,1.1,-999.0,76,-99.99,,,0.00,Acu-Link.com,2013-01-14 16:18:00,
2013-01-14 10:34:00,4.6,-1.3,30.28,West,270,2.7,-999.0,76,-99.99,,,0.00,Acu-Link.com,2013-01-14 16:34:00,
2013-01-14 10:49:00,4.8,-1.1,30.28,SE,135,1.7,-999.0,76,-99.99,,,0.00,Acu-Link.com,2013-01-14 16:49:00,
2013-01-14 11:04:00,5.2,-1.5,30.28,WNW,292,2.7,-999.0,73,-99.99,,,0.00,Acu-Link.com,2013-01-14 17:04:00,
2013-01-14 11:19:00,5.4,-0.8,30.27,SW,225,3.7,-999.0,75,-99.99,,,0.00,Acu-Link.com,2013-01-14 17:19:00,
2013-01-14 11:34:00,5.7,-1.1,30.27,South,180,5.3,-999.0,73,-99.99,,,0.00,Acu-Link.com,2013-01-14 17:34:00,
2013-01-14 11:50:00,5.4,-1.6,30.27,North,0,3.2,-999.0,72,-99.99,,,0.00,Acu-Link.com,2013-01-14 17:50:00,
2013-01-14 12:05:00,6.1,-1.0,30.26,NNE,22,1.1,-999.0,72,-99.99,,,0.00,Acu-Link.com,2013-01-14 18:05:00,
2013-01-14 12:20:00,5.9,-1.4,30.26,East,90,3.2,-999.0,71,-99.99,,,0.00,Acu-Link.com,2013-01-14 18:20:00,
2013-01-14 12:35:00,6.1,-1.6,30.25,North,0,1.1,-999.0,70,-99.99,,,0.00,Acu-Link.com,2013-01-14 18:35:00,
2013-01-14 12:50:00,7.2,-0.5,30.25,SSW,202,2.7,-999.0,70,-99.99,,,0.00,Acu-Link.com,2013-01-14 18:50:00,
2013-01-14 13:06:00,7.3,-0.7,30.25,WSW,247,4.7,-999.0,69,-99.99,,,0.00,Acu-Link.com,2013-01-14 19:06:00,
2013-01-14 13:21:00,7.3,-0.4,30.24,North,0,2.7,-999.0,70,-99.99,,,0.00,Acu-Link.com,2013-01-14 19:21:00,
2013-01-14 13:36:00,8.2,-0.5,30.23,SE,135,2.7,-999.0,67,-99.99,,,0.00,Acu-Link.com,2013-01-14 19:36:00,
2013-01-14 13:52:00,8.8,0.1,30.23,SW,225,3.7,-999.0,67,-99.99,,,0.00,Acu-Link.com,2013-01-14 19:52:00,
2013-01-14 14:07:00,7.9,0.2,30.22,ESE,112,2.2,-999.0,70,-99.99,,,0.00,Acu-Link.com,2013-01-14 20:07:00,
2013-01-14 14:22:00,8.1,-0.9,30.22,East,90,3.2,-999.0,66,-99.99,,,0.00,Acu-Link.com,2013-01-14 20:22:00,
2013-01-14 14:38:00,9.9,0.5,30.21,SSW,202,3.7,-999.0,65,-99.99,,,0.00,Acu-Link.com,2013-01-14 20:38:00,
2013-01-14 14:53:00,10.0,0.3,30.21,WSW,247,1.7,-999.0,64,-99.99,,,0.00,Acu-Link.com,2013-01-14 20:53:00,
2013-01-14 15:08:00,9.3,0.6,30.21,NNE,22,2.2,-999.0,67,-99.99,,,0.00,Acu-Link.com,2013-01-14 21:08:00,
2013-01-14 15:23:00,9.3,0.6,30.22,NNW,337,0.0,-999.0,67,-99.99,,,0.00,Acu-Link.com,2013-01-14 21:23:00,
2013-01-14 15:38:00,8.4,-0.3,30.22,West,270,3.2,-999.0,67,-99.99,,,0.00,Acu-Link.com,2013-01-14 21:38:00,
2013-01-14 15:54:00,8.2,0.2,30.21,SW,225,1.7,-999.0,69,-99.99,,,0.00,Acu-Link.com,2013-01-14 21:54:00,
2013-01-14 16:09:00,7.5,-0.2,30.22,West,270,1.7,-999.0,70,-99.99,,,0.00,Acu-Link.com,2013-01-14 22:09:00,
2013-01-14 16:24:00,7.2,-0.2,30.21,ENE,67,2.7,-999.0,71,-99.99,,,0.00,Acu-Link.com,2013-01-14 22:24:00,
2013-01-14 16:39:00,7.2,-0.2,30.21,North,0,1.7,-999.0,71,-99.99,,,0.00,Acu-Link.com,2013-01-14 22:39:00,
2013-01-14 16:54:00,7.0,0.2,30.21,East,90,1.7,-999.0,73,-99.99,,,0.00,Acu-Link.com,2013-01-14 22:54:00,
2013-01-14 17:10:00,6.8,0.3,30.22,SSE,157,3.2,-999.0,74,-99.99,,,0.00,Acu-Link.com,2013-01-14 23:10:00,
2013-01-14 17:25:00,5.9,-0.6,30.21,SSW,202,2.2,-999.0,74,-99.99,,,0.00,Acu-Link.com,2013-01-14 23:25:00,
2013-01-14 17:40:00,5.5,-0.7,30.21,East,90,3.2,-999.0,75,-99.99,,,0.00,Acu-Link.com,2013-01-14 23:40:00,
2013-01-14 17:55:00,5.5,-0.4,30.20,WNW,292,2.2,-999.0,76,-99.99,,,0.00,Acu-Link.com,2013-01-14 23:55:00,
2013-01-14 18:10:00,5.5,-0.4,30.20,East,90,3.2,-999.0,76,-99.99,,,0.00,Acu-Link.com,2013-01-15 00:10:00,
2013-01-14 18:26:00,5.5,-0.4,30.19,South,180,2.2,-999.0,76,-99.99,,,0.00,Acu-Link.com,2013-01-15 00:26:00,
2013-01-14 18:41:00,5.7,-0.2,30.19,SSE,157,3.7,-999.0,76,-99.99,,,0.00,Acu-Link.com,2013-01-15 00:41:00,
2013-01-14 18:56:00,5.7,-0.2,30.19,West,270,2.7,-999.0,76,-99.99,,,0.00,Acu-Link.com,2013-01-15 00:56:00,
2013-01-14 19:11:00,5.7,-0.2,30.19,SW,225,1.7,-999.0,76,-99.99,,,0.00,Acu-Link.com,2013-01-15 01:11:00,
2013-01-14 19:26:00,6.1,0.2,30.19,NE,45,2.2,-999.0,76,-99.99,,,0.00,Acu-Link.com,2013-01-15 01:26:00,
2013-01-14 19:42:00,6.3,0.4,30.18,West,270,1.7,-999.0,76,-99.99,,,0.00,Acu-Link.com,2013-01-15 01:42:00,
2013-01-14 19:58:00,6.4,0.5,30.18,NE,45,3.2,-999.0,76,-99.99,,,0.00,Acu-Link.com,2013-01-15 01:58:00,
2013-01-14 20:13:00,6.8,0.6,30.17,West,270,1.7,-999.0,75,-99.99,,,0.00,Acu-Link.com,2013-01-15 02:13:00,
2013-01-14 20:28:00,6.8,0.6,30.17,ESE,112,4.2,-999.0,75,-99.99,,,0.00,Acu-Link.com,2013-01-15 02:28:00,
2013-01-14 21:00:00,7.3,1.4,30.15,ESE,112,3.2,-999.0,76,-99.99,,,0.00,Acu-Link.com,2013-01-15 03:00:00,
2013-01-14 21:16:00,7.5,1.5,30.14,East,90,2.7,-999.0,76,-99.99,,,0.00,Acu-Link.com,2013-01-15 03:16:00,
2013-01-14 22:04:00,6.8,1.4,30.13,NNE,22,4.7,-999.0,78,-99.99,,,0.00,Acu-Link.com,2013-01-15 04:04:00,
2013-01-14 22:20:00,6.6,1.5,30.13,West,270,0.0,-999.0,79,-99.99,,,0.00,Acu-Link.com,2013-01-15 04:20:00,
2013-01-14 22:35:00,7.0,2.2,30.13,East,90,1.1,-999.0,80,-99.99,,,0.00,Acu-Link.com,2013-01-15 04:35:00,
2013-01-14 22:50:00,6.8,2.2,30.13,East,90,1.7,-999.0,81,-99.99,,,0.00,Acu-Link.com,2013-01-15 04:50:00,
2013-01-14 23:05:00,6.3,1.7,30.14,NW,315,0.0,-999.0,81,-99.99,,,0.00,Acu-Link.com,2013-01-15 05:05:00,
2013-01-14 23:20:00,5.9,1.6,30.14,ESE,112,1.1,-999.0,82,-99.99,,,0.00,Acu-Link.com,2013-01-15 05:20:00,
2013-01-14 23:36:00,6.6,2.3,30.13,SSW,202,1.1,-999.0,82,-99.99,,,0.00,Acu-Link.com,2013-01-15 05:36:00,
2013-01-14 23:51:00,6.8,2.8,30.13,SE,135,2.2,-999.0,83,-99.99,,,0.00,Acu-Link.com,2013-01-15 05:51:00,